createdAt,value
2019-05-17T00:00:37.363Z,19.20
2019-05-17T00:03:07.088Z,19.20
2019-05-17T00:05:37.362Z,19.10
2019-05-17T00:08:07.637Z,19.10
2019-05-17T00:10:37.550Z,19.00
2019-05-17T00:13:07.589Z,19.10
2019-05-17T00:15:37.184Z,19.00
2019-05-17T00:18:06.699Z,19.00
2019-05-17T00:20:37.443Z,19.00
2019-05-17T00:23:07.032Z,19.00
2019-05-17T00:25:36.875Z,18.90
2019-05-17T00:28:07.355Z,18.90
2019-05-17T00:30:37.249Z,18.90
2019-05-17T00:33:07.803Z,18.90
2019-05-17T00:35:37.762Z,18.90
2019-05-17T00:38:06.979Z,18.80
2019-05-17T00:40:36.528Z,18.80
2019-05-17T00:43:06.715Z,18.80
2019-05-17T00:45:37.774Z,18.80
2019-05-17T00:48:06.589Z,18.80
2019-05-17T00:50:37.992Z,18.80
2019-05-17T00:53:07.218Z,18.80
2019-05-17T00:55:36.583Z,18.70
2019-05-17T00:58:06.673Z,18.70
2019-05-17T01:00:37.582Z,18.70
2019-05-17T01:03:07.190Z,18.60
2019-05-17T01:05:36.936Z,18.70
2019-05-17T01:08:07.158Z,18.60
2019-05-17T01:10:36.797Z,18.60
2019-05-17T01:13:06.939Z,18.60
2019-05-17T01:15:36.956Z,18.60
2019-05-17T01:18:07.191Z,18.60
2019-05-17T01:20:36.917Z,18.50
2019-05-17T01:23:07.704Z,18.50
2019-05-17T01:25:37.312Z,18.50
2019-05-17T01:28:07.518Z,18.50
2019-05-17T01:30:37.428Z,18.50
2019-05-17T01:33:06.886Z,18.50
2019-05-17T01:35:37.519Z,18.50
2019-05-17T01:38:07.328Z,18.50
2019-05-17T01:40:37.347Z,18.50
2019-05-17T01:43:07.867Z,18.50
2019-05-17T01:45:36.853Z,18.40
2019-05-17T01:48:07.270Z,18.40
2019-05-17T01:50:37.413Z,18.40
2019-05-17T01:53:07.495Z,18.40
2019-05-17T01:55:37.558Z,18.30
2019-05-17T01:58:07.398Z,18.30
2019-05-17T02:00:37.551Z,18.30
2019-05-17T02:03:07.527Z,18.20
2019-05-17T02:05:37.321Z,18.20
2019-05-17T02:08:06.959Z,18.20
2019-05-17T02:10:37.541Z,18.10
2019-05-17T02:13:06.790Z,18.10
2019-05-17T02:15:37.928Z,18.10
2019-05-17T02:18:07.036Z,18.10
2019-05-17T02:20:37.182Z,18.00
2019-05-17T02:23:07.240Z,18.00
2019-05-17T02:25:37.032Z,18.00
2019-05-17T02:28:05.881Z,17.90
2019-05-17T02:30:34.683Z,17.90
2019-05-17T02:33:04.169Z,17.90
2019-05-17T02:35:33.829Z,17.80
2019-05-17T02:38:03.268Z,17.80
2019-05-17T02:40:33.989Z,17.80
2019-05-17T02:43:03.304Z,17.80
2019-05-17T02:45:32.989Z,17.80
2019-05-17T02:48:03.630Z,17.80
2019-05-17T02:50:33.421Z,17.80
2019-05-17T02:53:04.521Z,17.70
2019-05-17T02:55:33.698Z,17.70
2019-05-17T02:58:03.466Z,17.70
2019-05-17T03:00:34.034Z,17.70
2019-05-17T03:03:03.768Z,17.70
2019-05-17T03:05:33.871Z,17.70
2019-05-17T03:08:04.114Z,17.60
2019-05-17T03:10:33.858Z,17.60
2019-05-17T03:13:04.159Z,17.60
2019-05-17T03:15:33.529Z,17.60
2019-05-17T03:18:03.776Z,17.60
2019-05-17T03:20:33.216Z,17.60
2019-05-17T03:23:03.815Z,17.70
2019-05-17T03:25:33.365Z,17.70
2019-05-17T03:28:03.380Z,17.70
2019-05-17T03:30:36.369Z,17.70
2019-05-17T03:33:06.975Z,17.70
2019-05-17T03:35:37.318Z,17.70
2019-05-17T03:38:04.929Z,17.80
2019-05-17T03:41:06.150Z,17.70
2019-05-17T03:43:05.110Z,17.80
2019-05-17T03:45:34.334Z,17.80
2019-05-17T03:48:04.840Z,17.80
2019-05-17T03:50:33.951Z,17.80
2019-05-17T03:55:32.785Z,17.80
2019-05-17T03:58:02.876Z,17.80
2019-05-17T04:00:30.079Z,17.80
2019-05-17T04:02:58.847Z,17.80
2019-05-17T04:05:27.660Z,17.90
2019-05-17T04:07:56.442Z,17.90
2019-05-17T04:10:25.211Z,17.90
2019-05-17T04:12:54.075Z,17.90
2019-05-17T04:15:23.920Z,17.90
2019-05-17T04:17:54.418Z,18.00
2019-05-17T04:20:23.170Z,18.00
2019-05-17T04:22:54.162Z,18.00
2019-05-17T04:25:23.474Z,18.10
2019-05-17T04:27:53.606Z,18.10
2019-05-17T04:30:23.350Z,18.10
2019-05-17T04:32:52.805Z,18.20
2019-05-17T04:35:23.222Z,18.10
2019-05-17T04:37:53.068Z,18.20
2019-05-17T04:40:23.084Z,18.20
2019-05-17T04:42:52.964Z,18.30
2019-05-17T04:45:23.050Z,18.30
2019-05-17T04:47:52.839Z,18.30
2019-05-17T04:50:23.077Z,18.40
2019-05-17T04:52:53.714Z,18.40
2019-05-17T04:55:23.187Z,18.50
2019-05-17T04:57:52.957Z,18.50
2019-05-17T05:00:22.213Z,18.50
2019-05-17T05:02:52.784Z,18.50
2019-05-17T05:05:22.742Z,18.50
2019-05-17T05:07:53.421Z,18.60
2019-05-17T05:10:22.700Z,18.70
2019-05-17T05:12:52.448Z,18.70
2019-05-17T05:15:38.563Z,18.70
2019-05-17T05:18:07.345Z,18.80
2019-05-17T05:20:36.159Z,18.80
2019-05-17T05:23:05.120Z,18.90
2019-05-17T05:25:34.066Z,18.90
2019-05-17T05:28:02.841Z,18.90
2019-05-17T05:30:32.010Z,18.90
2019-05-17T05:33:02.003Z,19.00
2019-05-17T05:35:31.764Z,19.10
2019-05-17T05:38:02.202Z,19.20
2019-05-17T05:40:32.069Z,19.20
2019-05-17T05:43:02.354Z,19.30
2019-05-17T05:45:32.112Z,19.40
2019-05-17T05:48:01.811Z,19.50
2019-05-17T05:50:32.401Z,19.60
2019-05-17T05:53:02.074Z,19.60
2019-05-17T05:55:32.212Z,19.70
2019-05-17T05:58:03.006Z,19.80
2019-05-17T06:00:33.036Z,19.90
2019-05-17T06:03:04.207Z,19.90
2019-05-17T06:05:32.555Z,20.00
2019-05-17T06:08:02.952Z,20.10
2019-05-17T06:10:32.507Z,20.20
2019-05-17T06:13:02.957Z,20.20
2019-05-17T06:15:32.087Z,20.30
2019-05-17T06:18:03.037Z,20.40
2019-05-17T06:20:32.336Z,20.40
2019-05-17T06:23:02.613Z,20.50
2019-05-17T06:25:34.214Z,20.50
2019-05-17T06:28:01.824Z,20.60
2019-05-17T06:30:32.372Z,20.60
2019-05-17T06:33:02.427Z,20.70
2019-05-17T06:35:32.566Z,20.70
2019-05-17T06:38:01.926Z,20.80
2019-05-17T06:40:32.337Z,20.90
2019-05-17T06:43:04.339Z,20.90
2019-05-17T06:45:32.578Z,21.00
2019-05-17T06:48:02.527Z,21.10
2019-05-17T06:50:32.765Z,21.10
2019-05-17T06:53:03.229Z,21.20
2019-05-17T06:55:32.103Z,21.30
2019-05-17T06:58:01.773Z,21.30
2019-05-17T07:00:30.600Z,21.40
2019-05-17T07:03:00.712Z,21.50
2019-05-17T07:05:40.614Z,21.50
2019-05-17T07:08:10.786Z,21.60
2019-05-17T07:10:40.107Z,21.70
2019-05-17T07:13:10.677Z,21.80
2019-05-17T07:15:46.786Z,21.90
2019-05-17T07:18:10.451Z,22.00
2019-05-17T07:20:39.661Z,22.10
2019-05-17T07:23:10.801Z,22.10
2019-05-17T07:25:39.644Z,22.20
2019-05-17T07:28:10.109Z,22.30
2019-05-17T07:30:39.984Z,22.40
2019-05-17T07:33:10.136Z,22.50
2019-05-17T07:35:39.795Z,22.60
2019-05-17T07:38:10.535Z,22.70
2019-05-17T07:40:39.917Z,22.80
2019-05-17T07:43:13.939Z,22.90
2019-05-17T07:45:40.368Z,23.00
2019-05-17T07:48:09.860Z,23.20
2019-05-17T07:50:39.827Z,23.30
2019-05-17T07:53:10.297Z,23.40
2019-05-17T07:55:39.864Z,23.40
2019-05-17T07:58:10.202Z,23.50
2019-05-17T08:00:39.941Z,23.60
2019-05-17T08:03:12.767Z,23.60
2019-05-17T08:05:40.303Z,23.70
2019-05-17T08:08:09.879Z,23.80
2019-05-17T08:10:40.837Z,23.80
2019-05-17T08:13:25.208Z,23.90
2019-05-17T08:15:40.405Z,23.90
2019-05-17T08:18:10.950Z,24.00
2019-05-17T08:20:40.187Z,24.10
2019-05-17T08:23:10.803Z,24.20
2019-05-17T08:25:52.068Z,24.20
2019-05-17T08:28:10.890Z,24.30
2019-05-17T08:30:40.893Z,24.40
2019-05-17T08:33:10.938Z,24.40
2019-05-17T08:35:40.150Z,24.50
2019-05-17T08:38:10.353Z,24.50
2019-05-17T08:40:40.337Z,24.60
2019-05-17T08:43:10.089Z,24.70
2019-05-17T08:45:40.725Z,24.80
2019-05-17T08:48:09.657Z,24.90
2019-05-17T08:50:40.251Z,25.00
2019-05-17T08:53:10.639Z,25.00
2019-05-17T08:55:40.895Z,25.10
2019-05-17T08:58:10.620Z,25.20
2019-05-17T09:00:40.720Z,25.30
2019-05-17T09:03:10.634Z,25.30
2019-05-17T09:05:41.684Z,25.40
2019-05-17T09:08:10.474Z,25.40
2019-05-17T09:10:40.831Z,25.40
2019-05-17T09:13:12.311Z,25.40
2019-05-17T09:15:40.310Z,25.50
2019-05-17T09:18:09.834Z,25.50
2019-05-17T09:20:40.506Z,25.50
2019-05-17T09:23:09.763Z,25.50
2019-05-17T09:25:39.774Z,25.60
2019-05-17T09:28:10.260Z,25.60
2019-05-17T09:30:40.449Z,25.60
2019-05-17T09:33:11.381Z,25.60
2019-05-17T09:35:41.084Z,25.60
2019-05-17T09:38:10.513Z,25.70
2019-05-17T09:40:40.203Z,25.70
2019-05-17T09:43:10.186Z,25.70
2019-05-17T09:45:40.359Z,25.80
2019-05-17T09:48:10.386Z,25.80
2019-05-17T09:50:39.940Z,25.80
2019-05-17T09:53:10.852Z,25.80
2019-05-17T09:55:39.846Z,25.90
2019-05-17T09:58:09.938Z,25.90
2019-05-17T10:00:38.977Z,26.00
2019-05-17T10:03:09.763Z,26.00
2019-05-17T10:05:40.715Z,25.90
2019-05-17T10:08:10.615Z,25.90
2019-05-17T10:10:40.236Z,25.90
2019-05-17T10:13:09.837Z,25.90
2019-05-17T10:15:40.937Z,25.90
2019-05-17T10:18:11.020Z,26.00
2019-05-17T10:20:40.190Z,26.00
2019-05-17T10:23:10.570Z,26.00
2019-05-17T10:25:40.184Z,26.00
2019-05-17T10:28:10.071Z,26.00
2019-05-17T10:30:40.011Z,26.00
2019-05-17T10:33:09.900Z,26.00
2019-05-17T10:35:40.582Z,25.90
2019-05-17T10:38:10.375Z,25.80
2019-05-17T10:40:40.801Z,25.80
2019-05-17T10:43:10.324Z,25.60
2019-05-17T10:45:40.136Z,25.50
2019-05-17T10:48:10.303Z,25.40
2019-05-17T10:50:40.769Z,25.20
2019-05-17T10:53:10.110Z,25.00
2019-05-17T10:55:39.658Z,24.80
2019-05-17T10:58:09.971Z,24.50
2019-05-17T11:00:41.353Z,24.40
2019-05-17T11:03:10.031Z,24.20
2019-05-17T11:05:40.315Z,24.00
2019-05-17T11:08:10.615Z,23.80
2019-05-17T11:10:39.915Z,23.80
2019-05-17T11:13:08.899Z,23.50
2019-05-17T11:15:37.690Z,23.40
2019-05-17T11:18:06.485Z,23.10
2019-05-17T11:20:35.239Z,23.00
2019-05-17T11:23:03.999Z,22.90
2019-05-17T11:25:32.847Z,22.70
2019-05-17T11:28:01.585Z,22.60
2019-05-17T11:30:30.353Z,22.50
2019-05-17T11:32:59.319Z,22.40
2019-05-17T11:35:28.046Z,22.30
2019-05-17T11:37:56.817Z,22.30
2019-05-17T11:40:25.693Z,22.10
2019-05-17T11:42:54.426Z,22.00
2019-05-17T11:45:28.113Z,22.00
2019-05-17T11:47:53.643Z,22.00
2019-05-17T11:50:22.384Z,21.90
2019-05-17T11:52:51.138Z,21.90
2019-05-17T11:55:19.952Z,21.90
2019-05-17T11:57:48.732Z,21.80
2019-05-17T12:00:18.725Z,21.70
2019-05-17T12:02:47.528Z,21.70
2019-05-17T12:05:16.338Z,21.70
2019-05-17T12:07:45.467Z,21.60
2019-05-17T12:10:14.762Z,21.60
2019-05-17T12:12:43.535Z,21.60
2019-05-17T12:15:12.718Z,21.60
2019-05-17T12:17:41.466Z,21.60
2019-05-17T12:20:10.913Z,21.60
2019-05-17T12:22:39.679Z,21.60
2019-05-17T12:25:08.932Z,21.60
2019-05-17T12:27:39.349Z,21.60
2019-05-17T12:30:09.209Z,21.60
2019-05-17T12:32:38.016Z,21.60
2019-05-17T12:35:08.378Z,21.60
2019-05-17T12:37:37.333Z,21.60
2019-05-17T12:40:06.891Z,21.60
2019-05-17T12:42:35.703Z,21.60
2019-05-17T12:45:06.576Z,21.50
2019-05-17T12:47:35.509Z,21.60
2019-05-17T12:50:11.855Z,21.60
2019-05-17T12:52:40.668Z,21.60
2019-05-17T12:55:09.801Z,21.60
2019-05-17T12:57:38.598Z,21.60
2019-05-17T13:00:08.089Z,21.60
2019-05-17T13:02:36.853Z,21.60
2019-05-17T13:05:06.168Z,21.60
2019-05-17T13:07:34.919Z,21.60
2019-05-17T13:10:05.733Z,21.60
2019-05-17T13:12:34.451Z,21.60
2019-05-17T13:15:03.744Z,21.60
2019-05-17T13:17:32.589Z,21.60
2019-05-17T13:20:01.543Z,21.60
2019-05-17T13:22:30.608Z,21.50
2019-05-17T13:24:59.323Z,21.50
2019-05-17T13:27:28.135Z,21.50
2019-05-17T13:29:57.006Z,21.50
2019-05-17T13:32:25.765Z,21.50
2019-05-17T13:34:54.624Z,21.40
2019-05-17T13:37:23.371Z,21.40
2019-05-17T13:39:52.111Z,21.40
2019-05-17T13:42:20.902Z,21.30
2019-05-17T13:44:49.731Z,21.30
2019-05-17T13:47:18.753Z,21.30
2019-05-17T13:49:47.511Z,21.30
2019-05-17T13:52:16.267Z,21.20
2019-05-17T13:54:45.013Z,21.20
2019-05-17T13:57:13.772Z,21.10
2019-05-17T13:59:42.596Z,21.00
2019-05-17T14:02:11.332Z,21.00
2019-05-17T14:04:40.072Z,21.00
2019-05-17T14:07:08.823Z,21.00
2019-05-17T14:09:37.565Z,20.90
2019-05-17T14:12:06.334Z,20.90
2019-05-17T14:14:35.079Z,20.90
2019-05-17T14:17:03.830Z,20.90
2019-05-17T14:19:32.604Z,20.80
2019-05-17T14:22:01.348Z,20.90
2019-05-17T14:24:30.167Z,20.90
2019-05-17T14:26:58.967Z,20.80
2019-05-17T14:29:27.867Z,20.90
2019-05-17T14:31:56.687Z,21.00
2019-05-17T14:34:25.446Z,21.00
2019-05-17T14:36:54.194Z,21.00
2019-05-17T14:39:23.021Z,21.00
2019-05-17T14:41:51.780Z,20.90
2019-05-17T14:44:20.531Z,21.00
2019-05-17T14:46:49.342Z,20.90
2019-05-17T14:49:18.105Z,20.90
2019-05-17T14:51:46.871Z,20.90
2019-05-17T14:54:15.634Z,21.00
2019-05-17T14:56:44.375Z,21.00
2019-05-17T14:59:13.129Z,21.10
2019-05-17T15:01:41.883Z,21.20
2019-05-17T15:04:10.702Z,21.20
2019-05-17T15:06:39.515Z,21.30
2019-05-17T15:09:11.344Z,21.40
2019-05-17T15:11:38.664Z,21.50
2019-05-17T15:14:07.482Z,21.60
2019-05-17T15:16:36.247Z,21.80
2019-05-17T15:19:05.482Z,21.80
2019-05-17T15:21:34.355Z,21.90
2019-05-17T15:24:03.164Z,22.00
2019-05-17T15:26:31.866Z,22.10
2019-05-17T15:29:00.609Z,22.10
2019-05-17T15:31:29.403Z,22.10
2019-05-17T15:33:58.141Z,22.20
2019-05-17T15:36:26.928Z,22.30
2019-05-17T15:38:55.659Z,22.30
2019-05-17T15:41:24.476Z,22.40
2019-05-17T15:43:53.304Z,22.50
2019-05-17T15:46:22.054Z,22.50
2019-05-17T15:48:50.908Z,22.50
2019-05-17T15:51:19.749Z,22.60
2019-05-17T15:53:48.584Z,22.50
2019-05-17T15:56:17.320Z,22.60
2019-05-17T15:58:46.190Z,22.50
2019-05-17T16:01:14.995Z,22.50
2019-05-17T16:03:43.855Z,22.50
2019-05-17T16:06:12.749Z,22.50
2019-05-17T16:08:41.522Z,22.50
2019-05-17T16:11:10.283Z,22.50
2019-05-17T16:13:39.042Z,22.50
2019-05-17T16:16:07.778Z,22.40
2019-05-17T16:18:36.628Z,22.40
2019-05-17T16:21:05.461Z,22.40
2019-05-17T16:23:34.200Z,22.30
2019-05-17T16:26:02.985Z,22.30
2019-05-17T16:28:31.717Z,22.30
2019-05-17T16:31:00.453Z,22.20
2019-05-17T16:33:29.330Z,22.10
2019-05-17T16:35:58.131Z,22.10
2019-05-17T16:38:26.956Z,22.10
2019-05-17T16:40:55.707Z,22.00
2019-05-17T16:43:24.444Z,22.00
2019-05-17T16:45:53.224Z,22.00
2019-05-17T16:48:21.963Z,21.90
2019-05-17T16:50:50.694Z,21.90
2019-05-17T16:53:19.480Z,21.90
2019-05-17T16:55:48.227Z,21.80
2019-05-17T16:58:17.060Z,21.80
2019-05-17T17:00:45.800Z,21.80
2019-05-17T17:03:14.540Z,21.70
2019-05-17T17:05:43.520Z,21.70
2019-05-17T17:08:12.265Z,21.60
2019-05-17T17:10:41.074Z,21.60
2019-05-17T17:13:09.860Z,21.50
2019-05-17T17:15:38.680Z,21.50
2019-05-17T17:18:07.510Z,21.50
2019-05-17T17:20:36.408Z,21.40
2019-05-17T17:23:05.280Z,21.40
2019-05-17T17:25:34.028Z,21.30
2019-05-17T17:28:05.901Z,21.30
2019-05-17T17:30:33.354Z,21.30
2019-05-17T17:33:02.157Z,21.30
2019-05-17T17:35:30.863Z,21.20
2019-05-17T17:37:59.619Z,21.20
2019-05-17T17:40:28.512Z,21.20
2019-05-17T17:42:57.297Z,21.10
2019-05-17T17:45:26.555Z,21.10
2019-05-17T17:47:55.421Z,21.00
2019-05-17T17:50:24.170Z,21.00
2019-05-17T17:52:52.971Z,21.00
2019-05-17T17:55:21.868Z,20.90
2019-05-17T17:57:50.694Z,20.90
2019-05-17T18:00:20.334Z,20.90
2019-05-17T18:02:49.132Z,20.80
2019-05-17T18:05:17.984Z,20.80
2019-05-17T18:07:46.733Z,20.70
2019-05-17T18:10:27.134Z,20.70
2019-05-17T18:12:55.904Z,20.70
2019-05-17T18:15:27.664Z,20.60
2019-05-17T18:17:56.414Z,20.60
2019-05-17T18:20:25.196Z,20.60
2019-05-17T18:22:53.939Z,20.60
2019-05-17T18:25:22.778Z,20.60
2019-05-17T18:27:51.647Z,20.50
2019-05-17T18:30:20.674Z,20.50
2019-05-17T18:32:49.425Z,20.50
2019-05-17T18:35:18.355Z,20.40
2019-05-17T18:37:47.104Z,20.40
2019-05-17T18:40:15.911Z,20.50
2019-05-17T18:42:44.612Z,20.40
2019-05-17T18:45:13.553Z,20.40
2019-05-17T18:47:42.395Z,20.40
2019-05-17T18:50:12.719Z,20.40
2019-05-17T18:52:41.674Z,20.30
2019-05-17T18:55:10.795Z,20.30
2019-05-17T18:57:39.611Z,20.30
2019-05-17T19:00:09.340Z,20.30
2019-05-17T19:02:38.177Z,20.30
2019-05-17T19:05:08.182Z,20.30
2019-05-17T19:07:36.886Z,20.30
2019-05-17T19:10:06.700Z,20.30
2019-05-17T19:12:35.477Z,20.20
2019-05-17T19:15:09.533Z,20.20
2019-05-17T19:17:38.263Z,20.20
2019-05-17T19:20:07.639Z,20.10
2019-05-17T19:22:36.506Z,20.10
2019-05-17T19:25:08.421Z,20.10
2019-05-17T19:27:37.135Z,20.10
2019-05-17T19:30:07.466Z,20.10
2019-05-17T19:32:36.220Z,20.10
2019-05-17T19:35:06.757Z,20.10
2019-05-17T19:37:35.579Z,20.00
2019-05-17T19:40:07.263Z,20.10
2019-05-17T19:42:35.995Z,20.10
2019-05-17T19:45:07.145Z,20.10
2019-05-17T19:47:35.901Z,20.10
2019-05-17T19:50:07.042Z,20.10
2019-05-17T19:52:35.831Z,20.00
2019-05-17T19:55:05.783Z,20.00
2019-05-17T19:57:34.529Z,20.00
2019-05-17T20:00:04.404Z,20.00
2019-05-17T20:02:33.148Z,20.00
2019-05-17T20:05:01.895Z,20.00
2019-05-17T20:07:38.088Z,20.00
2019-05-17T20:10:01.205Z,20.00
2019-05-17T20:12:29.968Z,19.90
2019-05-17T20:15:15.691Z,19.90
2019-05-17T20:17:29.982Z,19.90
2019-05-17T20:19:58.807Z,19.90
2019-05-17T20:22:27.628Z,19.80
2019-05-17T20:24:56.375Z,19.80
2019-05-17T20:27:25.192Z,19.80
2019-05-17T20:29:54.022Z,19.80
2019-05-17T20:32:22.859Z,19.80
2019-05-17T20:34:51.676Z,19.70
2019-05-17T20:37:20.522Z,19.70
2019-05-17T20:39:49.344Z,19.70
2019-05-17T20:42:18.111Z,19.70
2019-05-17T20:44:46.855Z,19.70
2019-05-17T20:47:15.707Z,19.70
2019-05-17T20:49:44.453Z,19.70
2019-05-17T20:52:13.189Z,19.70
2019-05-17T20:54:41.995Z,19.70
2019-05-17T20:57:10.925Z,19.60
2019-05-17T20:59:39.680Z,19.60
2019-05-17T21:02:11.557Z,19.60
2019-05-17T21:04:40.331Z,19.60
2019-05-17T21:07:09.149Z,19.60
2019-05-17T21:09:37.895Z,19.50
2019-05-17T21:12:06.617Z,19.50
2019-05-17T21:14:35.390Z,19.50
2019-05-17T21:17:04.127Z,19.50
2019-05-17T21:19:33.792Z,19.50
2019-05-17T21:22:02.531Z,19.50
2019-05-17T21:24:31.274Z,19.50
2019-05-17T21:27:00.028Z,19.50
2019-05-17T21:29:28.865Z,19.50
2019-05-17T21:31:57.533Z,19.50
2019-05-17T21:34:26.280Z,19.50
2019-05-17T21:36:55.113Z,19.50
2019-05-17T21:39:23.895Z,19.50
2019-05-17T21:41:52.621Z,19.40
2019-05-17T21:44:21.392Z,19.40
2019-05-17T21:47:03.735Z,19.40
2019-05-17T21:49:20.638Z,19.50
2019-05-17T21:51:49.385Z,19.50
2019-05-17T21:54:18.206Z,19.50
2019-05-17T21:56:46.948Z,19.50
2019-05-17T21:59:15.716Z,19.40
2019-05-17T22:01:44.596Z,19.40
2019-05-17T22:04:13.381Z,19.40
2019-05-17T22:06:42.187Z,19.40
2019-05-17T22:09:10.941Z,19.40
2019-05-17T22:11:44.513Z,19.40
2019-05-17T22:14:11.865Z,19.40
2019-05-17T22:16:40.692Z,19.40
2019-05-17T22:19:09.568Z,19.40
2019-05-17T22:21:39.314Z,19.30
2019-05-17T22:24:08.097Z,19.30
2019-05-17T22:26:36.830Z,19.30
2019-05-17T22:29:05.579Z,19.30
2019-05-17T22:31:34.332Z,19.20
2019-05-17T22:34:03.105Z,19.20
2019-05-17T22:36:31.848Z,19.20
2019-05-17T22:39:00.625Z,19.20
2019-05-17T22:41:29.363Z,19.20
2019-05-17T22:43:58.126Z,19.20
2019-05-17T22:46:35.533Z,19.20
2019-05-17T22:48:57.344Z,19.20
2019-05-17T22:51:26.095Z,19.20
2019-05-17T22:53:54.842Z,19.20
2019-05-17T22:56:23.685Z,19.10
2019-05-17T22:58:52.418Z,19.10
2019-05-17T23:01:21.263Z,19.10
2019-05-17T23:03:50.055Z,19.00
2019-05-17T23:06:18.880Z,19.00
2019-05-17T23:08:47.707Z,19.00
2019-05-17T23:11:16.454Z,19.00
2019-05-17T23:13:45.189Z,19.00
2019-05-17T23:16:14.106Z,19.00
2019-05-17T23:18:44.904Z,19.00
2019-05-17T23:21:13.718Z,19.00
2019-05-17T23:23:43.369Z,19.00
2019-05-17T23:26:12.105Z,19.00
2019-05-17T23:28:40.869Z,19.00
2019-05-17T23:31:09.693Z,19.00
2019-05-17T23:33:38.599Z,19.00
2019-05-17T23:36:07.383Z,19.00
2019-05-17T23:38:36.132Z,18.90
2019-05-17T23:41:04.927Z,18.90
2019-05-17T23:43:34.104Z,18.90
2019-05-17T23:46:02.848Z,18.90
2019-05-17T23:48:31.604Z,18.90
2019-05-17T23:51:00.413Z,18.90
2019-05-17T23:53:29.145Z,18.90
2019-05-17T23:55:57.905Z,18.90
2019-05-17T23:58:26.659Z,18.90
